createdAt,value
2022-09-04T00:00:22.174Z,83.74
2022-09-04T00:02:48.549Z,83.92
2022-09-04T00:05:19.048Z,83.75
2022-09-04T00:07:41.287Z,84.39
2022-09-04T00:10:07.647Z,84.40
2022-09-04T00:12:34.041Z,84.29
2022-09-04T00:15:00.415Z,83.88
2022-09-04T00:17:26.820Z,83.11
2022-09-04T00:19:53.199Z,82.88
2022-09-04T00:22:19.680Z,83.15
2022-09-04T00:24:46.070Z,83.57
2022-09-04T00:27:12.443Z,83.94
2022-09-04T00:29:38.814Z,83.78
2022-09-04T00:32:05.180Z,83.85
2022-09-04T00:34:31.641Z,83.42
2022-09-04T00:36:58.009Z,82.82
2022-09-04T00:39:24.431Z,82.40
2022-09-04T00:41:50.761Z,82.60
2022-09-04T00:44:17.179Z,82.99
2022-09-04T00:46:43.611Z,82.98
2022-09-04T00:49:10.036Z,83.27
2022-09-04T00:51:36.474Z,83.23
2022-09-04T00:54:02.854Z,83.69
2022-09-04T00:56:29.218Z,84.09
2022-09-04T00:58:55.620Z,84.72
2022-09-04T01:01:22.152Z,84.99
2022-09-04T01:03:48.404Z,85.64
2022-09-04T01:06:14.745Z,85.50
2022-09-04T01:08:41.111Z,84.86
2022-09-04T01:11:07.480Z,85.00
2022-09-04T01:13:33.964Z,85.06
2022-09-04T01:16:00.417Z,84.96
2022-09-04T01:18:26.711Z,84.96
2022-09-04T01:20:53.170Z,84.66
2022-09-04T01:23:19.573Z,83.93
2022-09-04T01:25:45.958Z,83.72
2022-09-04T01:28:12.457Z,83.03
2022-09-04T01:30:38.840Z,83.52
2022-09-04T01:33:05.216Z,84.00
2022-09-04T01:35:31.624Z,83.71
2022-09-04T01:37:58.005Z,83.64
2022-09-04T01:40:35.197Z,83.39
2022-09-04T01:42:50.853Z,83.24
2022-09-04T01:45:17.289Z,83.03
2022-09-04T01:47:43.652Z,83.73
2022-09-04T01:50:10.023Z,83.43
2022-09-04T01:52:36.390Z,83.23
2022-09-04T01:55:02.749Z,83.70
2022-09-04T01:57:29.116Z,84.20
2022-09-04T01:59:55.486Z,84.46
2022-09-04T02:02:21.921Z,83.59
2022-09-04T02:04:48.333Z,84.02
2022-09-04T02:07:14.698Z,84.31
2022-09-04T02:09:41.106Z,84.13
2022-09-04T02:12:08.775Z,84.27
2022-09-04T02:14:33.922Z,84.26
2022-09-04T02:17:00.284Z,84.71
2022-09-04T02:19:26.726Z,84.76
2022-09-04T02:21:53.090Z,85.19
2022-09-04T02:24:19.496Z,85.62
2022-09-04T02:26:45.933Z,86.16
2022-09-04T02:29:12.295Z,86.12
2022-09-04T02:31:38.740Z,86.59
2022-09-04T02:34:05.140Z,86.75
2022-09-04T02:36:31.507Z,87.12
2022-09-04T02:38:57.996Z,87.18
2022-09-04T02:41:24.420Z,87.37
2022-09-04T02:43:50.789Z,87.37
2022-09-04T02:46:17.226Z,86.86
2022-09-04T02:48:43.584Z,86.85
2022-09-04T02:51:09.959Z,87.15
2022-09-04T02:53:36.363Z,87.46
2022-09-04T02:56:02.734Z,87.80
2022-09-04T02:58:29.154Z,88.64
2022-09-04T03:00:55.548Z,89.04
2022-09-04T03:03:21.907Z,89.31
2022-09-04T03:05:48.263Z,89.38
2022-09-04T03:08:14.655Z,89.47
2022-09-04T03:10:41.023Z,89.24
2022-09-04T03:13:07.444Z,88.92
2022-09-04T03:15:33.822Z,89.33
2022-09-04T03:18:00.185Z,90.10
2022-09-04T03:20:26.640Z,90.48
2022-09-04T03:22:53.076Z,90.68
2022-09-04T03:25:19.435Z,90.64
2022-09-04T03:27:45.840Z,90.82
2022-09-04T03:30:12.267Z,90.94
2022-09-04T03:32:38.703Z,90.52
2022-09-04T03:35:05.070Z,90.86
2022-09-04T03:37:31.468Z,90.86
2022-09-04T03:39:57.899Z,91.18
2022-09-04T03:42:24.201Z,91.64
2022-09-04T03:44:52.323Z,91.60
2022-09-04T03:47:17.095Z,91.39
2022-09-04T03:49:43.522Z,90.77
2022-09-04T03:52:09.891Z,91.42
2022-09-04T03:54:36.397Z,92.01
2022-09-04T03:57:02.779Z,91.56
2022-09-04T03:59:29.261Z,91.11
2022-09-04T04:01:55.665Z,91.96
2022-09-04T04:04:22.053Z,92.04
2022-09-04T04:06:48.417Z,92.32
2022-09-04T04:09:14.890Z,91.77
2022-09-04T04:11:43.436Z,91.72
2022-09-04T04:14:07.639Z,91.80
2022-09-04T04:16:34.097Z,91.64
2022-09-04T04:19:00.827Z,91.51
2022-09-04T04:21:27.253Z,90.91
2022-09-04T04:23:53.687Z,90.49
2022-09-04T04:26:20.125Z,90.59
2022-09-04T04:28:46.554Z,90.75
2022-09-04T04:31:13.080Z,90.54
2022-09-04T04:33:39.326Z,90.82
2022-09-04T04:36:05.702Z,90.56
2022-09-04T04:38:32.077Z,89.94
2022-09-04T04:40:58.518Z,89.66
2022-09-04T04:43:24.917Z,89.86
2022-09-04T04:45:51.281Z,89.33
2022-09-04T04:48:17.706Z,89.20
2022-09-04T04:50:44.070Z,89.66
2022-09-04T04:53:10.481Z,90.28
2022-09-04T04:55:36.847Z,90.14
2022-09-04T04:58:03.215Z,90.01
2022-09-04T05:00:29.580Z,90.10
2022-09-04T05:02:56.067Z,90.22
2022-09-04T05:05:22.367Z,90.71
2022-09-04T05:07:48.773Z,90.31
2022-09-04T05:10:15.174Z,89.97
2022-09-04T05:12:41.655Z,89.96
2022-09-04T05:15:08.009Z,90.02
2022-09-04T05:17:34.377Z,90.35
2022-09-04T05:20:00.743Z,90.63
2022-09-04T05:22:30.399Z,90.91
2022-09-04T05:24:54.060Z,90.98
2022-09-04T05:27:20.064Z,90.64
2022-09-04T05:29:46.446Z,90.23
2022-09-04T05:32:12.835Z,89.89
2022-09-04T05:34:39.194Z,89.63
2022-09-04T05:37:05.673Z,89.21
2022-09-04T05:39:32.018Z,88.99
2022-09-04T05:41:59.163Z,88.48
2022-09-04T05:44:24.734Z,88.42
2022-09-04T05:46:51.823Z,88.25
2022-09-04T05:49:17.516Z,87.80
2022-09-04T05:51:43.940Z,87.91
2022-09-04T05:54:10.299Z,87.93
2022-09-04T05:56:36.720Z,87.25
2022-09-04T05:59:03.150Z,86.35
2022-09-04T06:01:29.628Z,85.95
2022-09-04T06:03:55.944Z,86.32
2022-09-04T06:06:22.346Z,86.58
2022-09-04T06:08:48.728Z,87.25
2022-09-04T06:11:15.116Z,87.97
2022-09-04T06:13:41.546Z,88.20
2022-09-04T06:16:08.290Z,88.70
2022-09-04T06:18:34.600Z,88.91
2022-09-04T06:21:01.000Z,88.22
2022-09-04T06:23:27.434Z,87.91
2022-09-04T06:25:54.014Z,87.77
2022-09-04T06:28:20.433Z,87.56
2022-09-04T06:30:47.027Z,87.35
2022-09-04T06:33:13.411Z,86.80
2022-09-04T06:35:39.854Z,87.55
2022-09-04T06:38:06.278Z,87.43
2022-09-04T06:40:32.661Z,87.14
2022-09-04T06:42:59.098Z,86.67
2022-09-04T06:45:25.590Z,86.70
2022-09-04T06:47:51.983Z,86.56
2022-09-04T06:50:18.368Z,86.22
2022-09-04T06:52:44.737Z,86.58
2022-09-04T06:55:11.107Z,86.14
2022-09-04T06:57:37.531Z,84.75
2022-09-04T07:00:03.919Z,81.47
2022-09-04T07:02:30.339Z,80.89
2022-09-04T07:04:56.682Z,79.11
2022-09-04T07:07:23.062Z,77.18
2022-09-04T07:09:49.426Z,74.73
2022-09-04T07:12:15.816Z,73.56
2022-09-04T07:14:42.183Z,73.55
2022-09-04T07:17:08.601Z,72.22
2022-09-04T07:19:34.973Z,69.76
2022-09-04T07:22:01.332Z,65.86
2022-09-04T07:24:27.707Z,65.19
2022-09-04T07:26:54.066Z,65.10
2022-09-04T07:29:25.118Z,65.37
2022-09-04T07:31:46.902Z,63.24
2022-09-04T07:34:13.202Z,63.48
2022-09-04T07:36:39.627Z,62.96
2022-09-04T07:39:06.040Z,61.47
2022-09-04T07:41:32.405Z,59.88
2022-09-04T07:43:58.854Z,58.79
2022-09-04T07:46:25.316Z,60.02
2022-09-04T07:48:51.735Z,59.59
2022-09-04T07:51:18.109Z,58.85
2022-09-04T07:53:44.570Z,57.81
2022-09-04T07:56:11.016Z,58.38
2022-09-04T07:58:37.454Z,55.83
2022-09-04T08:01:03.892Z,56.95
2022-09-04T08:03:30.208Z,56.49
2022-09-04T08:05:56.575Z,53.26
2022-09-04T08:08:23.006Z,53.44
2022-09-04T08:10:49.310Z,53.63
2022-09-04T08:13:15.707Z,53.58
2022-09-04T08:15:42.877Z,52.70
2022-09-04T08:18:08.531Z,52.24
2022-09-04T08:20:34.874Z,51.04
2022-09-04T08:23:01.267Z,51.52
2022-09-04T08:25:27.666Z,50.08
2022-09-04T08:27:54.126Z,48.75
2022-09-04T08:30:20.566Z,50.02
2022-09-04T08:32:46.952Z,49.63
2022-09-04T08:35:13.333Z,49.48
2022-09-04T08:37:39.730Z,49.96
2022-09-04T08:40:06.138Z,50.08
2022-09-04T08:42:32.476Z,51.20
2022-09-04T08:44:58.960Z,50.61
2022-09-04T08:47:25.324Z,49.36
2022-09-04T08:49:51.733Z,49.39
2022-09-04T08:52:18.121Z,47.88
2022-09-04T08:54:44.484Z,46.49
2022-09-04T08:57:10.854Z,46.91
2022-09-04T08:59:37.233Z,47.22
2022-09-04T09:02:04.229Z,45.36
2022-09-04T09:04:30.620Z,45.06
2022-09-04T09:06:57.054Z,45.64
2022-09-04T09:09:23.494Z,43.85
2022-09-04T09:11:49.859Z,42.05
2022-09-04T09:14:16.254Z,41.83
2022-09-04T09:16:42.815Z,40.56
2022-09-04T09:19:09.114Z,40.71
2022-09-04T09:21:35.480Z,39.50
2022-09-04T09:24:01.901Z,37.78
2022-09-04T09:26:28.344Z,36.24
2022-09-04T09:28:55.023Z,34.50
2022-09-04T09:31:21.496Z,36.36
2022-09-04T09:33:47.766Z,36.01
2022-09-04T09:36:14.131Z,36.13
2022-09-04T09:38:40.531Z,35.79
2022-09-04T09:41:06.907Z,36.77
2022-09-04T09:43:33.344Z,36.43
2022-09-04T09:45:59.829Z,35.52
2022-09-04T09:48:26.215Z,35.92
2022-09-04T09:50:52.649Z,35.46
2022-09-04T09:53:19.106Z,35.20
2022-09-04T09:55:45.415Z,35.31
2022-09-04T09:58:11.794Z,35.69
2022-09-04T10:00:38.216Z,35.11
2022-09-04T10:03:04.575Z,34.96
2022-09-04T10:05:30.944Z,33.79
2022-09-04T10:07:57.321Z,33.46
2022-09-04T10:10:23.807Z,33.45
2022-09-04T10:12:50.190Z,33.73
2022-09-04T10:15:16.711Z,34.17
2022-09-04T10:17:43.109Z,34.27
2022-09-04T10:20:09.534Z,33.78
2022-09-04T10:22:35.932Z,33.70
2022-09-04T10:25:02.329Z,34.50
2022-09-04T10:27:28.738Z,34.13
2022-09-04T10:29:55.147Z,34.19
2022-09-04T10:32:21.527Z,34.15
2022-09-04T10:34:47.888Z,34.26
2022-09-04T10:37:14.275Z,34.52
2022-09-04T10:39:40.780Z,34.06
2022-09-04T10:42:07.051Z,34.12
2022-09-04T10:44:33.561Z,33.87
2022-09-04T10:46:59.928Z,34.19
2022-09-04T10:49:26.322Z,33.55
2022-09-04T10:51:52.751Z,32.55
2022-09-04T10:54:19.158Z,32.76
2022-09-04T10:56:45.629Z,32.72
2022-09-04T10:59:11.999Z,33.65
2022-09-04T11:01:38.438Z,33.93
2022-09-04T11:04:04.781Z,33.66
2022-09-04T11:06:31.163Z,34.02
2022-09-04T11:08:57.529Z,33.41
2022-09-04T11:11:24.018Z,33.79
2022-09-04T11:13:51.595Z,34.07
2022-09-04T11:16:16.931Z,34.28
2022-09-04T11:18:43.258Z,34.18
2022-09-04T11:21:09.611Z,34.93
2022-09-04T11:23:36.035Z,34.31
2022-09-04T11:26:02.413Z,35.25
2022-09-04T11:28:28.800Z,35.96
2022-09-04T11:30:55.271Z,34.56
2022-09-04T11:33:21.658Z,33.42
2022-09-04T11:35:48.146Z,32.82
2022-09-04T11:38:14.538Z,33.15
2022-09-04T11:40:40.926Z,33.31
2022-09-04T11:43:07.296Z,34.28
2022-09-04T11:45:33.814Z,34.01
2022-09-04T11:48:00.155Z,34.25
2022-09-04T11:50:26.643Z,34.27
2022-09-04T11:52:53.075Z,33.37
2022-09-04T11:55:19.435Z,32.90
2022-09-04T11:57:45.826Z,33.03
2022-09-04T12:00:12.210Z,32.63
2022-09-04T12:02:38.728Z,32.57
2022-09-04T12:05:05.157Z,31.45
2022-09-04T12:07:39.369Z,30.93
2022-09-04T12:09:57.952Z,31.67
2022-09-04T12:12:24.315Z,32.16
2022-09-04T12:14:50.678Z,31.95
2022-09-04T12:17:17.192Z,31.81
2022-09-04T12:19:43.575Z,33.20
2022-09-04T12:22:09.937Z,33.98
2022-09-04T12:24:36.334Z,33.78
2022-09-04T12:27:02.719Z,34.04
2022-09-04T12:29:29.081Z,32.70
2022-09-04T12:31:55.532Z,32.34
2022-09-04T12:34:21.843Z,32.70
2022-09-04T12:36:48.210Z,33.15
2022-09-04T12:39:14.581Z,33.81
2022-09-04T12:41:40.968Z,33.76
2022-09-04T12:44:07.374Z,33.83
2022-09-04T12:46:33.788Z,33.74
2022-09-04T12:49:00.184Z,33.91
2022-09-04T12:51:26.585Z,34.01
2022-09-04T12:53:53.160Z,33.43
2022-09-04T12:56:19.299Z,33.88
2022-09-04T12:58:45.732Z,34.07
2022-09-04T13:01:12.185Z,34.86
2022-09-04T13:03:38.504Z,34.89
2022-09-04T13:06:04.949Z,34.82
2022-09-04T13:08:31.464Z,34.73
2022-09-04T13:10:58.074Z,34.82
2022-09-04T13:13:25.134Z,35.55
2022-09-04T13:15:50.991Z,34.73
2022-09-04T13:18:17.198Z,34.66
2022-09-04T13:20:43.805Z,34.98
2022-09-04T13:23:11.106Z,37.46
2022-09-04T13:25:36.593Z,40.65
2022-09-04T13:28:02.975Z,42.17
2022-09-04T13:30:29.341Z,42.56
2022-09-04T13:32:55.741Z,43.70
2022-09-04T13:35:22.129Z,43.78
2022-09-04T13:37:48.494Z,43.90
2022-09-04T13:40:14.858Z,43.22
2022-09-04T13:42:42.606Z,42.89
2022-09-04T13:45:07.668Z,43.35
2022-09-04T13:47:34.045Z,43.64
2022-09-04T13:50:00.452Z,42.90
2022-09-04T13:52:26.818Z,43.05
2022-09-04T13:54:53.188Z,43.43
2022-09-04T13:57:19.565Z,43.25
2022-09-04T13:59:45.942Z,43.33
2022-09-04T14:02:12.294Z,42.98
2022-09-04T14:04:38.835Z,42.88
2022-09-04T14:07:05.189Z,42.80
2022-09-04T14:09:31.548Z,43.27
2022-09-04T14:11:57.925Z,43.32
2022-09-04T14:14:24.312Z,44.07
2022-09-04T14:16:50.819Z,44.00
2022-09-04T14:19:17.220Z,43.60
2022-09-04T14:21:43.596Z,43.69
2022-09-04T14:24:10.091Z,44.21
2022-09-04T14:26:36.478Z,44.17
2022-09-04T14:29:02.837Z,44.76
2022-09-04T14:31:29.329Z,45.08
2022-09-04T14:33:55.656Z,45.23
2022-09-04T14:36:22.024Z,45.37
2022-09-04T14:38:48.475Z,45.18
2022-09-04T14:41:14.846Z,45.99
2022-09-04T14:43:41.237Z,46.43
2022-09-04T14:46:07.669Z,45.94
2022-09-04T14:48:34.018Z,45.80
2022-09-04T14:51:00.383Z,46.11
2022-09-04T14:53:26.866Z,46.55
2022-09-04T14:55:53.249Z,46.58
2022-09-04T14:58:19.791Z,47.16
2022-09-04T15:00:46.002Z,47.17
2022-09-04T15:03:12.550Z,47.29
2022-09-04T15:05:38.886Z,47.82
2022-09-04T15:08:05.239Z,48.56
2022-09-04T15:10:31.693Z,48.62
2022-09-04T15:12:58.077Z,49.11
2022-09-04T15:15:24.440Z,49.65
2022-09-04T15:17:50.889Z,50.12
2022-09-04T15:20:17.323Z,50.56
2022-09-04T15:22:43.707Z,50.86
2022-09-04T15:25:10.108Z,51.10
2022-09-04T15:27:36.485Z,51.26
2022-09-04T15:30:02.849Z,51.62
2022-09-04T15:32:29.221Z,52.29
2022-09-04T15:34:55.610Z,52.52
2022-09-04T15:37:21.974Z,52.81
2022-09-04T15:39:48.408Z,53.81
2022-09-04T15:42:14.811Z,54.28
2022-09-04T15:44:41.246Z,54.58
2022-09-04T15:47:07.625Z,55.00
2022-09-04T15:49:33.996Z,55.01
2022-09-04T15:52:00.376Z,55.71
2022-09-04T15:54:26.740Z,56.32
2022-09-04T15:56:53.099Z,56.53
2022-09-04T15:59:19.474Z,56.66
2022-09-04T16:01:45.883Z,56.93
2022-09-04T16:04:12.228Z,57.09
2022-09-04T16:06:38.609Z,57.43
2022-09-04T16:09:04.996Z,57.69
2022-09-04T16:11:31.354Z,58.32
2022-09-04T16:13:58.405Z,59.09
2022-09-04T16:16:24.174Z,61.37
2022-09-04T16:18:50.500Z,61.25
2022-09-04T16:21:16.867Z,63.25
2022-09-04T16:23:43.249Z,65.63
2022-09-04T16:26:09.694Z,64.17
2022-09-04T16:28:36.085Z,68.01
2022-09-04T16:31:02.541Z,69.43
2022-09-04T16:33:28.835Z,70.04
2022-09-04T16:35:55.316Z,70.34
2022-09-04T16:38:24.258Z,70.70
2022-09-04T16:40:48.067Z,71.84
2022-09-04T16:43:14.445Z,72.79
2022-09-04T16:45:40.808Z,73.40
2022-09-04T16:48:34.057Z,72.74
2022-09-04T16:50:33.601Z,72.28
2022-09-04T16:53:13.662Z,71.79
2022-09-04T16:55:26.346Z,72.48
2022-09-04T16:57:52.721Z,72.75
2022-09-04T17:00:19.134Z,74.00
2022-09-04T17:02:45.605Z,74.71
2022-09-04T17:05:11.902Z,74.37
2022-09-04T17:07:38.296Z,74.94
2022-09-04T17:10:04.698Z,74.99
2022-09-04T17:12:31.077Z,74.73
2022-09-04T17:14:57.439Z,77.68
2022-09-04T17:17:31.316Z,78.71
2022-09-04T17:19:50.270Z,79.00
2022-09-04T17:28:56.322Z,79.11
2022-09-04T17:29:02.553Z,80.17
2022-09-04T17:29:14.872Z,81.37
2022-09-04T17:29:39.509Z,81.38
2022-09-04T17:32:25.565Z,81.95
2022-09-04T17:40:33.033Z,81.69
2022-09-04T17:40:50.559Z,82.07
2022-09-04T17:40:55.961Z,82.47
2022-09-04T17:41:59.239Z,82.13
2022-09-04T17:44:14.236Z,82.84
2022-09-04T17:46:40.678Z,83.05
2022-09-04T17:49:06.983Z,84.03
2022-09-04T17:51:33.411Z,85.55
2022-09-04T17:53:59.771Z,85.43
2022-09-04T17:56:26.277Z,85.18
2022-09-04T17:58:52.631Z,85.60
2022-09-04T18:01:19.050Z,85.98
2022-09-04T18:03:46.005Z,85.97
2022-09-04T18:06:11.903Z,86.09
2022-09-04T18:08:38.269Z,86.98
2022-09-04T18:11:04.681Z,87.28
2022-09-04T18:13:37.967Z,87.20
2022-09-04T18:15:57.463Z,87.07
2022-09-04T18:18:25.166Z,86.83
2022-09-04T18:20:51.587Z,87.18
2022-09-04T18:23:16.604Z,86.95
2022-09-04T18:25:42.980Z,86.77
2022-09-04T18:28:12.236Z,85.91
2022-09-04T18:36:52.689Z,85.76
2022-09-04T18:37:12.024Z,86.07
2022-09-04T18:37:17.998Z,86.91
2022-09-04T18:37:55.122Z,87.77
2022-09-04T18:40:43.106Z,87.64
2022-09-04T18:50:22.703Z,87.50
2022-09-04T18:50:38.911Z,87.22
2022-09-04T18:50:50.533Z,86.93
2022-09-04T18:50:53.242Z,86.97
2022-09-04T18:52:33.495Z,84.65
2022-09-04T18:54:59.752Z,83.89
2022-09-04T18:57:26.464Z,83.76
2022-09-04T18:59:58.386Z,84.38
2022-09-04T19:02:19.281Z,83.42
2022-09-04T19:04:45.620Z,83.66
2022-09-04T19:07:12.007Z,82.55
2022-09-04T19:09:44.451Z,81.44
2022-09-04T19:12:04.750Z,81.64
2022-09-04T19:14:31.148Z,80.03
2022-09-04T19:16:57.548Z,81.60
2022-09-04T19:19:25.556Z,84.00
2022-09-04T19:21:57.643Z,84.19
2022-09-04T19:24:16.841Z,84.28
2022-09-04T19:26:43.198Z,84.94
2022-09-04T19:29:09.584Z,85.48
2022-09-04T19:31:35.997Z,85.64
2022-09-04T19:34:02.328Z,86.34
2022-09-04T19:36:30.900Z,86.62
2022-09-04T19:46:02.898Z,85.98
2022-09-04T19:46:05.611Z,85.35
2022-09-04T19:46:14.471Z,84.98
2022-09-04T19:46:33.354Z,85.50
2022-09-04T19:49:06.397Z,85.22
2022-09-04T19:53:24.321Z,85.65
2022-09-04T19:53:42.433Z,86.17
2022-09-04T19:56:00.099Z,86.34
2022-09-04T19:58:26.497Z,86.33
2022-09-04T20:00:52.921Z,85.81
2022-09-04T20:03:29.524Z,85.12
2022-09-04T20:05:45.623Z,84.96
2022-09-04T20:08:11.997Z,84.77
2022-09-04T20:10:38.453Z,84.49
2022-09-04T20:13:04.826Z,84.24
2022-09-04T20:15:31.893Z,84.23
2022-09-04T20:17:57.609Z,84.70
2022-09-04T20:20:23.973Z,84.68
2022-09-04T20:22:50.426Z,84.09
2022-09-04T20:25:16.852Z,83.81
2022-09-04T20:27:43.212Z,84.28
2022-09-04T20:30:09.618Z,85.22
2022-09-04T20:32:36.025Z,84.47
2022-09-04T20:35:14.028Z,84.95
2022-09-04T20:37:28.790Z,84.19
2022-09-04T20:39:55.240Z,84.61
2022-09-04T20:42:21.557Z,83.91
2022-09-04T20:47:23.047Z,83.59
2022-09-04T20:49:40.685Z,82.85
2022-09-04T20:52:44.971Z,82.73
2022-09-04T20:52:58.850Z,82.41
2022-09-04T20:54:33.501Z,82.21
2022-09-04T20:59:47.088Z,82.86
2022-09-04T21:03:14.935Z,82.36
2022-09-04T21:03:23.853Z,81.82
2022-09-04T21:04:31.406Z,81.48
2022-09-04T21:06:45.391Z,81.32
2022-09-04T21:09:11.754Z,80.66
2022-09-04T21:11:41.657Z,80.87
2022-09-04T21:14:04.534Z,81.14
2022-09-04T21:16:30.924Z,82.34
2022-09-04T21:19:28.033Z,82.75
2022-09-04T21:21:23.640Z,82.30
2022-09-04T21:24:03.822Z,82.11
2022-09-04T21:26:16.544Z,81.72
2022-09-04T21:28:42.942Z,81.88
2022-09-04T21:31:09.461Z,82.37
2022-09-04T21:33:36.882Z,82.97
2022-09-04T21:36:25.265Z,82.78
2022-09-04T21:38:28.530Z,83.04
2022-09-04T21:40:54.995Z,83.64
2022-09-04T21:43:21.368Z,83.81
2022-09-04T21:45:47.684Z,83.89
2022-09-04T21:48:18.281Z,84.02
2022-09-04T21:50:40.512Z,83.93
2022-09-04T21:53:06.872Z,83.31
2022-09-04T21:57:20.806Z,82.91
2022-09-04T22:02:31.711Z,83.36
2022-09-04T22:02:45.495Z,82.99
2022-09-04T22:02:59.382Z,82.58
2022-09-04T22:05:18.933Z,83.48
2022-09-04T22:10:21.632Z,82.84
2022-09-04T22:13:35.444Z,82.03
2022-09-04T22:13:39.708Z,82.05
2022-09-04T22:15:04.596Z,81.40
2022-09-04T22:17:30.951Z,80.81
2022-09-04T22:19:57.360Z,79.75
2022-09-04T22:22:23.738Z,80.92
2022-09-04T22:24:50.223Z,80.52
2022-09-04T22:27:16.658Z,80.07
2022-09-04T22:29:43.019Z,79.49
2022-09-04T22:32:09.980Z,80.38
2022-09-04T22:34:35.801Z,80.91
2022-09-04T22:37:02.287Z,81.47
2022-09-04T22:39:31.724Z,81.75
2022-09-04T22:41:55.046Z,80.91
2022-09-04T22:44:21.434Z,81.39
2022-09-04T22:46:47.970Z,80.21
2022-09-04T22:49:14.342Z,80.93
2022-09-04T22:51:40.699Z,81.21
2022-09-04T22:54:07.083Z,80.80
2022-09-04T22:56:33.483Z,81.58
2022-09-04T22:59:22.554Z,80.83
2022-09-04T23:01:26.347Z,80.44
2022-09-04T23:03:52.747Z,80.74
2022-09-04T23:08:13.559Z,80.89
2022-09-04T23:13:46.380Z,79.94
2022-09-04T23:13:48.099Z,81.06
2022-09-04T23:13:58.275Z,80.27
2022-09-04T23:16:04.795Z,79.44
2022-09-04T23:24:56.536Z,78.91
2022-09-04T23:26:36.924Z,77.89
2022-09-04T23:26:53.271Z,75.92
2022-09-04T23:26:53.817Z,76.34
2022-09-04T23:28:28.070Z,76.01
2022-09-04T23:30:43.237Z,75.90
2022-09-04T23:33:09.625Z,75.99
2022-09-04T23:35:36.020Z,75.92
2022-09-04T23:38:02.384Z,77.33
2022-09-04T23:40:28.745Z,78.28
2022-09-04T23:42:55.133Z,78.68
2022-09-04T23:45:21.513Z,76.69
2022-09-04T23:47:49.456Z,77.64
2022-09-04T23:50:14.275Z,78.37
2022-09-04T23:52:46.271Z,78.36
2022-09-04T23:55:07.062Z,77.73
2022-09-04T23:57:33.554Z,76.60
2022-09-04T23:59:59.937Z,77.07
